Time;durP1;ratioP1;P1;durP2;ratioP2;P2;SDS_P1;SDS_P2;PMS_P1;PMS_P2;Temp;Humidity;BMP_temperature;BMP_pressure;BME280_temperature;BME280_humidity;BME280_pressure;Samples;Min_cycle;Max_cycle;Signal;HPM_P1;HPM_P2
2021/12/21 00:00:53;;;;;;;5.22;3.83;;;;;;;6.64;51.33;101048.46;1708649;83;21072;-51
2021/12/21 00:03:19;;;;;;;4.10;3.25;;;;;;;6.65;51.26;101054.08;1767328;80;21060;-51
2021/12/21 00:05:46;;;;;;;3.75;3.00;;;;;;;6.65;51.21;101060.55;1761969;80;21051;-51
2021/12/21 00:08:13;;;;;;;3.52;3.22;;;;;;;6.64;51.23;101054.92;1771544;80;20991;-52
2021/12/21 00:21:13;;;;;;;3.58;3.12;;;;;;;6.63;51.12;101071.32;1587159;88;21044;-51
2021/12/21 00:23:46;;;;;;;;;;;;;;;6.59;51.12;101073.89;1576734;90;21109;-52
2021/12/21 00:26:16;;;;;;;3.22;2.90;;;;;;;6.56;51.22;101081.67;1580499;89;20597;-51
2021/12/21 00:28:57;;;;;;;3.33;3.02;;;;;;;6.54;51.38;101083.81;1595937;89;21630;-51
2021/12/21 00:31:21;;;;;;;4.08;3.60;;;;;;;6.54;51.40;101078.22;1573014;90;21605;-52
2021/12/21 00:33:47;;;;;;;4.60;3.67;;;;;;;6.54;51.37;101084.69;1558530;90;21642;-52
2021/12/21 00:36:16;;;;;;;4.92;3.80;;;;;;;6.54;51.27;101082.52;1553084;90;21614;-52
2021/12/21 00:38:45;;;;;;;3.90;3.55;;;;;;;6.54;51.29;101080.80;1588151;89;21125;-53
2021/12/21 00:41:11;;;;;;;3.67;3.37;;;;;;;6.52;51.26;101082.53;1585397;89;21046;-52
2021/12/21 00:43:39;;;;;;;3.87;3.15;;;;;;;6.52;51.27;101090.71;1579210;89;21149;-52
2021/12/21 00:46:06;;;;;;;3.70;3.35;;;;;;;6.50;51.36;101095.02;1587660;88;21116;-52
2021/12/21 00:48:34;;;;;;;3.92;3.40;;;;;;;6.48;51.39;101110.54;1552353;91;21584;-53
2021/12/21 00:51:05;;;;;;;3.70;3.27;;;;;;;6.48;51.41;101104.50;1581148;89;21588;-53
2021/12/21 00:53:35;;;;;;;3.83;3.42;;;;;;;6.49;51.45;101113.54;1593312;89;21014;-51
2021/12/21 00:56:00;;;;;;;4.83;3.30;;;;;;;6.46;51.33;101110.97;1580496;89;21177;-51
2021/12/21 00:58:27;;;;;;;3.25;2.95;;;;;;;6.44;51.39;101110.11;1583676;89;21619;-54
2021/12/21 01:00:53;;;;;;;4.95;3.17;;;;;;;6.43;51.44;101112.67;1582033;89;21591;-54
2021/12/21 01:03:21;;;;;;;3.35;3.05;;;;;;;6.42;51.51;101117.00;1590564;89;21046;-53
2021/12/21 01:08:23;;;;;;;2.95;2.72;;;;;;;6.46;51.35;101116.14;1587666;89;21090;-54
2021/12/21 01:11:01;;;;;;;3.65;3.02;;;;;;;6.46;51.29;101113.55;1678113;83;21102;-53
2021/12/21 01:18:32;;;;;;;6.30;3.17;;;;;;;6.51;51.28;101129.91;1765615;80;21025;-51
2021/12/21 01:21:07;;;;;;;3.95;3.12;;;;;;;6.53;51.17;101135.95;1769071;80;21066;-51
2021/12/21 01:31:37;;;;;;;3.98;3.30;;;;;;;6.52;50.96;101154.92;1755522;80;21042;-53
2021/12/21 01:42:02;;;;;;;3.08;2.77;;;;;;;6.47;51.00;101164.38;1596108;88;21054;-53
2021/12/21 01:44:46;;;;;;;3.45;2.90;;;;;;;6.46;51.04;101165.67;1603154;88;21099;-51
2021/12/21 01:49:44;;;;;;;3.00;2.70;;;;;;;6.42;51.03;101169.12;1612991;88;21090;-53
2021/12/21 01:52:12;;;;;;;2.72;2.33;;;;;;;6.40;51.00;101168.25;1597205;88;21149;-52
2021/12/21 01:54:39;;;;;;;3.67;2.70;;;;;;;6.39;51.03;101179.44;1564253;90;21606;-53
2021/12/21 01:57:06;;;;;;;2.92;2.62;;;;;;;6.36;51.01;101169.98;1577494;90;21527;-53
2021/12/21 01:59:34;;;;;;;3.17;2.67;;;;;;;6.33;50.93;101175.13;1563985;90;21102;-53
2021/12/21 02:02:00;;;;;;;3.85;2.98;;;;;;;6.30;50.95;101169.97;1556936;90;21588;-53
2021/12/21 02:04:27;;;;;;;3.02;2.30;;;;;;;6.27;51.00;101173.82;1577686;90;21024;-53
2021/12/21 02:06:54;;;;;;;3.27;2.40;;;;;;;6.24;50.94;101173.83;1567365;90;21547;-53
2021/12/21 02:09:26;;;;;;;3.10;2.27;;;;;;;6.23;50.83;101177.26;1578010;90;21094;-53
2021/12/21 02:11:49;;;;;;;2.50;2.00;;;;;;;6.18;50.67;101180.25;1557805;91;21087;-53
2021/12/21 02:14:17;;;;;;;1.60;1.50;;;;;;;6.13;50.45;101180.68;1565935;91;21109;-52
2021/12/21 02:19:27;;;;;;;2.02;1.80;;;;;;;6.07;50.40;101187.13;1624711;88;21031;-53
2021/12/21 02:21:52;;;;;;;1.60;1.50;;;;;;;6.05;50.19;101192.71;1609775;87;21554;-52
2021/12/21 02:24:21;;;;;;;1.32;1.20;;;;;;;6.05;49.94;101197.88;1607113;87;21111;-52
2021/12/21 02:27:16;;;;;;;2.02;1.60;;;;;;;6.02;49.72;101195.27;1627040;87;21551;-52
2021/12/21 02:29:29;;;;;;;1.50;1.40;;;;;;;5.99;49.72;101210.77;1602732;87;21094;-52
2021/12/21 02:31:55;;;;;;;3.33;1.60;;;;;;;5.99;49.61;101208.61;1613632;88;21514;-52
2021/12/21 02:34:23;;;;;;;2.05;1.70;;;;;;;5.98;49.43;101206.45;1628131;86;21546;-52
2021/12/21 02:36:52;;;;;;;1.25;1.20;;;;;;;5.97;49.34;101212.48;1611722;87;21090;-52
2021/12/21 02:39:19;;;;;;;1.45;1.35;;;;;;;5.96;49.16;101212.45;1653310;85;21128;-52
2021/12/21 02:41:46;;;;;;;2.22;1.57;;;;;;;5.92;49.15;101220.63;1651728;85;21025;-52
2021/12/21 02:44:14;;;;;;;2.00;1.72;;;;;;;5.88;48.99;101220.60;1640748;86;21034;-52
2021/12/21 02:46:41;;;;;;;2.37;1.40;;;;;;;5.82;49.00;101217.55;1641113;86;21588;-52
2021/12/21 02:49:08;;;;;;;2.55;1.30;;;;;;;5.80;48.99;101216.67;1653418;85;21038;-53
2021/12/21 02:51:38;;;;;;;2.92;1.25;;;;;;;5.78;49.01;101219.67;1711652;81;21462;-52
2021/12/21 02:54:04;;;;;;;1.50;1.40;;;;;;;5.75;49.09;101227.39;1713350;82;21047;-52
2021/12/21 02:56:31;;;;;;;1.80;1.65;;;;;;;5.72;49.03;101227.39;1735003;82;21011;-52
2021/12/21 02:58:57;;;;;;;2.60;1.80;;;;;;;5.72;48.70;101239.02;1733662;82;21022;-51
2021/12/21 03:01:23;;;;;;;1.50;1.27;;;;;;;5.69;48.50;101239.84;1722507;82;21058;-52
2021/12/21 03:03:52;;;;;;;1.02;0.90;;;;;;;5.66;48.46;101242.84;1734591;82;20995;-52
2021/12/21 03:08:57;;;;;;;1.40;0.80;;;;;;;5.63;47.92;101246.69;1754777;80;21516;-52
2021/12/21 03:11:36;;;;;;;1.57;1.02;;;;;;;5.62;47.56;101252.72;1751696;80;21035;-52
2021/12/21 03:14:03;;;;;;;1.85;0.98;;;;;;;5.63;47.68;101251.85;1747018;80;21538;-52
2021/12/21 03:16:38;;;;;;;2.08;1.15;;;;;;;5.60;47.78;101255.72;1758375;80;21623;-52
2021/12/21 03:19:06;;;;;;;1.00;0.80;;;;;;;5.59;47.96;101252.69;1761751;80;21031;-52
2021/12/21 03:21:35;;;;;;;2.17;0.95;;;;;;;5.58;47.27;101260.02;1757456;80;21522;-51
2021/12/21 03:24:03;;;;;;;2.50;1.25;;;;;;;5.54;47.37;101277.17;1767362;80;21475;-52
2021/12/21 03:26:30;;;;;;;1.25;1.10;;;;;;;5.53;47.80;101276.75;1748496;80;21513;-52
2021/12/21 03:28:57;;;;;;;1.22;0.90;;;;;;;5.53;47.76;101277.17;1768279;80;20998;-51
2021/12/21 03:31:23;;;;;;;1.12;1.02;;;;;;;5.52;47.89;101276.75;1784265;80;21507;-51
2021/12/21 03:33:50;;;;;;;1.60;1.07;;;;;;;5.50;48.19;101284.91;1775801;80;21542;-52
2021/12/21 03:36:16;;;;;;;1.37;1.07;;;;;;;5.49;48.12;101281.88;1759054;80;21498;-52
2021/12/21 03:38:53;;;;;;;1.35;1.12;;;;;;;5.47;48.02;101295.20;1693786;83;21138;-52
2021/12/21 03:41:16;;;;;;;2.05;1.15;;;;;;;5.44;47.97;101299.06;1711768;82;21053;-52
2021/12/21 03:43:43;;;;;;;1.65;1.10;;;;;;;5.44;47.79;101297.32;1760329;80;21109;-51
2021/12/21 03:46:12;;;;;;;2.60;1.10;;;;;;;5.41;47.37;101308.06;1774933;80;20967;-52
2021/12/21 03:48:43;;;;;;;1.60;0.90;;;;;;;5.39;46.88;101293.86;1758413;80;21036;-52
2021/12/21 03:51:16;;;;;;;1.55;1.00;;;;;;;5.36;46.45;101305.44;1781605;80;21033;-51
2021/12/21 03:53:44;;;;;;;3.25;1.00;;;;;;;5.33;46.46;101308.42;1775330;80;21038;-51
2021/12/21 03:58:41;;;;;;;2.80;1.10;;;;;;;5.27;45.93;101307.09;1762625;80;21081;-52
2021/12/21 04:01:08;;;;;;;1.42;0.80;;;;;;;5.23;46.45;101313.07;1753371;80;21053;-52
2021/12/21 04:03:35;;;;;;;3.33;1.67;;;;;;;5.25;46.25;101325.56;1769773;80;21021;-51
2021/12/21 04:06:01;;;;;;;1.20;0.70;;;;;;;5.24;45.63;101322.52;1761608;80;21097;-52
2021/12/21 04:08:28;;;;;;;1.90;0.90;;;;;;;5.22;45.33;101325.52;1762228;80;21048;-52
2021/12/21 04:10:56;;;;;;;2.20;0.90;;;;;;;5.19;44.28;101320.34;1757350;80;20996;-51
2021/12/21 04:13:22;;;;;;;1.12;0.78;;;;;;;5.17;44.26;101318.17;1776402;80;21002;-51
2021/12/21 04:15:52;;;;;;;1.52;0.80;;;;;;;5.15;43.51;101325.04;1748343;80;21010;-51
2021/12/21 04:18:20;;;;;;;2.33;1.00;;;;;;;5.14;42.86;101333.61;1760811;80;21007;-51
2021/12/21 04:20:46;;;;;;;4.90;1.20;;;;;;;5.12;42.86;101332.31;1755030;80;21020;-51
2021/12/21 04:23:13;;;;;;;1.20;0.90;;;;;;;5.06;42.04;101343.00;1754594;80;21016;-52
2021/12/21 04:25:40;;;;;;;1.52;0.90;;;;;;;4.99;41.48;101348.52;1765999;80;21030;-51
2021/12/21 04:28:07;;;;;;;1.27;0.90;;;;;;;4.92;41.26;101363.05;1755971;80;21055;-51
2021/12/21 04:30:34;;;;;;;2.60;0.80;;;;;;;4.88;41.28;101366.44;1756525;80;21557;-52
2021/12/21 04:33:01;;;;;;;1.20;0.85;;;;;;;4.86;41.38;101366.85;1764827;80;21004;-51
2021/12/21 04:35:28;;;;;;;0.70;0.65;;;;;;;4.86;41.51;101369.88;1767889;80;21462;-51
2021/12/21 04:37:58;;;;;;;0.95;0.75;;;;;;;4.88;41.42;101383.20;1755368;80;20986;-51
2021/12/21 04:40:36;;;;;;;2.60;0.70;;;;;;;4.87;40.43;101381.49;1742866;80;21069;-51
2021/12/21 04:42:52;;;;;;;2.08;0.78;;;;;;;4.86;40.05;101384.91;1760401;80;21026;-51
2021/12/21 04:45:18;;;;;;;1.37;0.70;;;;;;;4.81;39.84;101400.77;1749269;81;21034;-51
2021/12/21 04:47:45;;;;;;;0.80;0.60;;;;;;;4.76;39.37;101404.98;1768478;80;21006;-51
2021/12/21 04:50:12;;;;;;;1.95;0.98;;;;;;;4.71;40.50;101410.94;1774610;80;21084;-51
2021/12/21 04:52:39;;;;;;;1.72;1.02;;;;;;;4.70;40.92;101401.05;1757996;80;21007;-51
2021/12/21 04:55:07;;;;;;;1.00;0.60;;;;;;;4.71;40.77;101414.39;1754376;80;20999;-51
2021/12/21 04:57:34;;;;;;;0.88;0.78;;;;;;;4.71;40.95;101416.97;1773239;80;20994;-52
2021/12/21 05:00:01;;;;;;;1.62;0.60;;;;;;;4.69;40.54;101416.50;1778117;80;21050;-51
2021/12/21 05:02:27;;;;;;;0.60;0.55;;;;;;;4.68;40.76;101422.07;1697756;83;20995;-51
2021/12/21 05:04:54;;;;;;;0.65;0.60;;;;;;;4.70;41.40;101424.66;1710121;82;21058;-52
2021/12/21 05:07:23;;;;;;;2.42;0.80;;;;;;;4.72;41.78;101434.16;1703464;82;21015;-51
2021/12/21 05:09:55;;;;;;;0.85;0.75;;;;;;;4.73;41.37;101434.61;1704125;83;21052;-51
2021/12/21 05:12:17;;;;;;;0.88;0.80;;;;;;;4.75;41.30;101441.94;1770437;80;21042;-51
2021/12/21 05:14:44;;;;;;;2.30;0.85;;;;;;;4.74;40.93;101441.48;1760962;80;21120;-51
2021/12/21 05:17:10;;;;;;;2.55;1.42;;;;;;;4.77;40.19;101442.83;1760172;80;21014;-52
2021/12/21 05:19:37;;;;;;;0.93;0.90;;;;;;;4.78;40.02;101446.28;1752210;80;21031;-51
2021/12/21 05:22:04;;;;;;;1.20;0.72;;;;;;;4.78;39.96;101449.70;1761919;81;21062;-51
2021/12/21 05:24:32;;;;;;;2.22;0.93;;;;;;;4.82;39.70;101457.07;1755990;80;21567;-51
2021/12/21 05:26:58;;;;;;;0.88;0.80;;;;;;;4.87;39.90;101454.98;1757898;80;21562;-51
2021/12/21 05:29:26;;;;;;;1.20;0.70;;;;;;;4.93;40.04;101466.66;1764229;80;21062;-52
2021/12/21 05:31:53;;;;;;;0.80;0.72;;;;;;;4.97;39.73;101463.69;1760809;80;21508;-51
2021/12/21 05:34:19;;;;;;;1.60;0.80;;;;;;;4.98;38.86;101469.72;1690758;83;21039;-51
2021/12/21 05:36:46;;;;;;;1.20;0.88;;;;;;;4.91;38.52;101473.52;1712262;82;21148;-52
2021/12/21 05:39:20;;;;;;;1.85;1.35;;;;;;;4.83;37.80;101471.27;1694268;83;21042;-51
2021/12/21 05:41:54;;;;;;;0.80;0.80;;;;;;;4.75;38.05;101482.31;1758920;80;21050;-52
2021/12/21 05:44:22;;;;;;;1.10;0.90;;;;;;;4.75;38.49;101491.34;1774315;80;21034;-52
2021/12/21 05:46:50;;;;;;;1.92;0.90;;;;;;;4.78;38.96;101492.69;1783496;80;21520;-51
2021/12/21 05:49:16;;;;;;;1.57;0.98;;;;;;;4.82;39.25;101496.59;1757429;80;21062;-51
2021/12/21 05:51:44;;;;;;;1.65;1.00;;;;;;;4.86;39.05;101498.36;1761132;80;21057;-51
2021/12/21 05:54:11;;;;;;;2.50;0.90;;;;;;;4.89;38.54;101513.89;1756976;80;21548;-52
2021/12/21 05:56:40;;;;;;;1.50;1.05;;;;;;;4.90;38.34;101516.89;1759936;80;21578;-51
2021/12/21 05:59:06;;;;;;;1.57;1.10;;;;;;;4.85;37.89;101530.16;1686416;83;21593;-50
2021/12/21 06:01:34;;;;;;;1.55;1.07;;;;;;;4.77;38.02;101522.75;1707422;83;21078;-52
2021/12/21 06:04:01;;;;;;;2.55;1.02;;;;;;;4.73;37.83;101530.00;1712127;82;21554;-51
2021/12/21 06:06:30;;;;;;;1.50;1.15;;;;;;;4.68;37.85;101540.66;1712325;82;21050;-51
2021/12/21 06:08:59;;;;;;;1.42;1.15;;;;;;;4.68;38.29;101540.66;1713089;83;21546;-51
2021/12/21 06:11:25;;;;;;;1.12;1.00;;;;;;;4.74;38.46;101543.77;1716937;82;20979;-51
2021/12/21 06:14:17;;;;;;;3.08;1.15;;;;;;;4.79;38.44;101544.27;1711958;82;22512;-51
2021/12/21 06:27:09;;;;;;;1.07;0.90;;;;;;;4.86;38.16;101565.84;1778501;80;21085;-51
2021/12/21 06:29:36;;;;;;;0.72;0.60;;;;;;;4.86;38.03;101564.11;1765781;80;20991;-51
2021/12/21 06:32:05;;;;;;;1.32;0.85;;;;;;;4.86;38.24;101561.53;1740062;80;21035;-51
2021/12/21 06:34:34;;;;;;;0.72;0.70;;;;;;;4.86;38.40;101564.11;1756740;80;20992;-51
2021/12/21 06:37:01;;;;;;;1.25;1.05;;;;;;;4.86;38.55;101569.27;1766555;80;21021;-52
2021/12/21 06:39:28;;;;;;;2.33;1.30;;;;;;;4.87;38.67;101572.31;1769948;80;21463;-51
2021/12/21 06:41:56;;;;;;;2.12;1.32;;;;;;;4.87;38.79;101576.17;1756315;80;21059;-52
2021/12/21 06:44:23;;;;;;;1.50;1.00;;;;;;;4.86;38.71;101565.41;1750025;80;21034;-52
2021/12/21 06:52:02;;;;;;;3.45;2.27;;;;;;;4.83;38.95;101580.84;1691361;83;21062;-51
2021/12/21 06:54:29;;;;;;;1.90;1.27;;;;;;;4.78;39.14;101573.45;1694937;83;21015;-51
2021/12/21 06:56:55;;;;;;;1.47;1.27;;;;;;;4.78;39.39;101576.03;1732514;81;21034;-51
2021/12/21 06:59:22;;;;;;;1.35;1.25;;;;;;;4.77;39.33;101584.62;1703810;83;21022;-51
2021/12/21 07:01:49;;;;;;;1.52;1.10;;;;;;;4.76;39.35;101580.30;1704050;83;21050;-51
2021/12/21 07:04:17;;;;;;;1.37;1.27;;;;;;;4.70;39.37;101577.62;1705332;83;21089;-51
2021/12/21 07:09:23;;;;;;;1.47;1.20;;;;;;;4.60;39.79;101573.19;1620823;87;21046;-51
2021/12/21 07:11:47;;;;;;;1.47;1.37;;;;;;;4.60;40.05;101569.73;1609816;87;21034;-51
2021/12/21 07:19:44;;;;;;;2.08;1.37;;;;;;;4.45;40.36;101588.39;1598309;87;21149;-51
2021/12/21 07:22:11;;;;;;;1.87;1.10;;;;;;;4.38;40.75;101574.98;1615030;87;21083;-52
2021/12/21 07:24:37;;;;;;;2.85;1.42;;;;;;;4.39;40.90;101593.45;1620334;87;21090;-51
2021/12/21 07:27:06;;;;;;;2.62;1.30;;;;;;;4.38;41.07;101593.02;1618526;87;21080;-51
2021/12/21 07:29:32;;;;;;;2.70;1.80;;;;;;;4.33;41.13;101601.08;1622376;87;21579;-51
2021/12/21 07:31:59;;;;;;;3.30;1.55;;;;;;;4.33;41.29;101606.23;1616240;87;21565;-51
2021/12/21 07:34:25;;;;;;;1.85;1.50;;;;;;;4.35;41.36;101604.55;1613327;87;21514;-51
2021/12/21 07:36:52;;;;;;;2.08;1.50;;;;;;;4.34;41.35;101612.26;1607525;87;21122;-53
2021/12/21 07:39:18;;;;;;;2.47;1.80;;;;;;;4.30;41.48;101604.91;1615585;87;21098;-51
2021/12/21 07:41:45;;;;;;;2.47;1.40;;;;;;;4.25;41.64;101609.52;1610031;87;21078;-52
2021/12/21 07:44:13;;;;;;;3.08;1.70;;;;;;;4.22;41.94;101618.08;1616522;87;21054;-52
2021/12/21 07:46:42;;;;;;;2.70;2.00;;;;;;;4.23;41.93;101624.95;1626203;87;21094;-51
2021/12/21 07:49:09;;;;;;;2.55;1.72;;;;;;;4.26;42.04;101628.89;1612436;87;21111;-51
2021/12/21 07:51:36;;;;;;;3.98;2.00;;;;;;;4.27;42.09;101619.01;1620110;88;21055;-51
2021/12/21 07:54:03;;;;;;;1.90;1.70;;;;;;;4.29;42.11;101613.46;1622955;88;21079;-51
2021/12/21 07:56:30;;;;;;;3.22;1.70;;;;;;;4.34;42.10;101619.58;1626359;87;21129;-51
2021/12/21 07:58:57;;;;;;;3.67;2.10;;;;;;;4.39;41.81;101621.80;1616659;87;21070;-51
2021/12/21 08:01:24;;;;;;;1.95;1.72;;;;;;;4.25;41.85;101620.69;1614371;87;21044;-52
2021/12/21 08:03:53;;;;;;;2.87;1.62;;;;;;;4.08;42.25;101616.97;1613593;87;21028;-51
2021/12/21 08:06:20;;;;;;;6.45;2.47;;;;;;;3.99;42.60;101624.11;1624104;87;21122;-51
2021/12/21 08:08:49;;;;;;;3.27;2.52;;;;;;;3.95;42.80;101626.59;1616912;87;21192;-51
2021/12/21 08:12:10;;;;;;;2.27;1.95;;;;;;;3.94;43.04;101630.86;1630557;81;21015;-52
2021/12/21 08:13:47;;;;;;;2.60;2.12;;;;;;;3.97;43.14;101636.49;1764808;80;21518;-51
2021/12/21 08:16:14;;;;;;;3.30;2.30;;;;;;;3.96;42.96;101637.31;1767004;80;21467;-51
2021/12/21 08:18:41;;;;;;;7.45;2.95;;;;;;;3.88;43.17;101641.45;1777612;80;21526;-51
2021/12/21 08:21:07;;;;;;;2.10;1.80;;;;;;;3.85;43.22;101645.27;1777472;80;20991;-51
2021/12/21 08:23:34;;;;;;;3.30;1.90;;;;;;;3.81;42.92;101644.77;1762599;80;21022;-51
2021/12/21 08:26:01;;;;;;;2.15;1.80;;;;;;;3.79;43.22;101647.73;1761300;80;21491;-51
2021/12/21 08:28:28;;;;;;;4.42;2.92;;;;;;;3.82;43.38;101655.50;1755431;80;21077;-51
2021/12/21 08:30:54;;;;;;;2.77;2.35;;;;;;;3.85;43.50;101656.86;1784034;80;21042;-51
2021/12/21 08:33:20;;;;;;;3.35;2.20;;;;;;;3.80;43.57;101650.33;1754561;80;21061;-51
2021/12/21 08:35:47;;;;;;;3.17;2.17;;;;;;;3.75;43.63;101649.35;1751924;81;20998;-51
2021/12/21 08:38:16;;;;;;;2.77;2.00;;;;;;;3.73;44.08;101654.05;1768419;80;20987;-52
2021/12/21 08:40:45;;;;;;;2.10;1.67;;;;;;;3.75;44.38;101647.22;1754042;80;21534;-51
2021/12/21 08:43:15;;;;;;;2.95;2.25;;;;;;;3.79;43.97;101655.01;1777781;80;21018;-51
2021/12/21 08:45:43;;;;;;;2.22;1.85;;;;;;;3.81;43.87;101653.78;1733604;81;21550;-51
2021/12/21 08:48:10;;;;;;;3.83;2.70;;;;;;;3.83;43.78;101649.08;1761302;80;21047;-52
2021/12/21 08:50:37;;;;;;;4.17;2.75;;;;;;;3.85;43.89;101651.71;1744662;80;20994;-51
2021/12/21 08:53:03;;;;;;;2.58;2.00;;;;;;;3.87;43.56;101653.90;1756065;80;20990;-51
2021/12/21 08:55:30;;;;;;;2.02;1.82;;;;;;;3.86;43.40;101647.00;1739596;81;20999;-52
2021/12/21 08:57:57;;;;;;;2.40;1.60;;;;;;;3.80;43.96;101646.87;1742070;80;21007;-51
2021/12/21 09:00:23;;;;;;;1.90;1.70;;;;;;;3.77;43.63;101649.41;1758362;80;21546;-52
2021/12/21 09:02:50;;;;;;;2.95;2.12;;;;;;;3.78;43.71;101653.70;1754320;80;21517;-52
2021/12/21 09:05:21;;;;;;;2.92;1.92;;;;;;;3.83;43.57;101663.24;1709495;83;21075;-51
2021/12/21 09:07:48;;;;;;;2.17;1.82;;;;;;;3.86;43.55;101657.30;1754773;80;21101;-52
2021/12/21 09:10:16;;;;;;;5.58;2.30;;;;;;;3.87;43.73;101661.62;1757575;80;21538;-51
2021/12/21 09:12:43;;;;;;;4.08;2.12;;;;;;;3.90;43.26;101648.38;1726585;81;20999;-51
2021/12/21 09:15:10;;;;;;;5.28;2.65;;;;;;;3.93;43.26;101657.88;1757257;80;21062;-51
2021/12/21 09:17:40;;;;;;;4.72;2.15;;;;;;;3.97;43.34;101662.24;1766157;80;21049;-51
2021/12/21 09:20:08;;;;;;;3.92;2.47;;;;;;;4.01;43.25;101658.89;1750722;80;21019;-51
2021/12/21 09:22:37;;;;;;;3.92;2.98;;;;;;;4.09;42.93;101666.34;1773855;80;20987;-51
2021/12/21 09:25:05;;;;;;;3.67;1.60;;;;;;;4.10;42.86;101660.36;1709157;83;21043;-51
2021/12/21 09:27:32;;;;;;;4.33;1.52;;;;;;;4.11;42.61;101665.94;1706047;83;21030;-52
2021/12/21 09:30:00;;;;;;;2.47;1.70;;;;;;;4.09;42.52;101672.78;1699162;83;21517;-51
2021/12/21 09:32:28;;;;;;;3.30;1.80;;;;;;;4.07;42.78;101671.88;1719502;83;21077;-51
2021/12/21 09:34:54;;;;;;;2.60;1.82;;;;;;;4.04;42.20;101675.25;1712321;83;21523;-52
2021/12/21 09:37:21;;;;;;;2.22;1.70;;;;;;;3.99;42.66;101688.89;1701351;83;21505;-51
2021/12/21 09:39:51;;;;;;;3.62;2.10;;;;;;;4.00;42.87;101675.16;1702884;83;21592;-51
2021/12/21 09:42:22;;;;;;;1.90;1.57;;;;;;;4.01;42.86;101681.66;1677625;84;21070;-52
2021/12/21 09:44:48;;;;;;;1.67;1.57;;;;;;;4.03;42.70;101667.52;1595280;88;21145;-52
2021/12/21 09:47:15;;;;;;;2.95;1.90;;;;;;;4.02;42.52;101687.64;1569538;90;21108;-51
2021/12/21 09:49:43;;;;;;;2.77;1.80;;;;;;;4.02;42.88;101670.91;1554272;91;21068;-51
2021/12/21 09:52:12;;;;;;;2.35;1.75;;;;;;;4.09;43.18;101676.64;1565803;90;21054;-51
2021/12/21 09:54:39;;;;;;;1.70;1.40;;;;;;;4.16;43.19;101666.91;1581091;88;21618;-51
2021/12/21 09:57:07;;;;;;;3.12;1.40;;;;;;;4.16;41.95;101671.19;1621080;88;21564;-51
2021/12/21 09:59:35;;;;;;;3.55;1.80;;;;;;;4.13;41.90;101670.70;1619237;87;21565;-52
2021/12/21 10:02:02;;;;;;;3.90;1.98;;;;;;;4.11;42.41;101681.40;1625022;87;21640;-52
2021/12/21 10:04:29;;;;;;;2.55;1.98;;;;;;;4.13;42.30;101671.98;1628179;87;21154;-51
2021/12/21 10:06:57;;;;;;;2.10;1.80;;;;;;;4.14;42.25;101672.02;1628083;87;21153;-51
2021/12/21 10:09:33;;;;;;;4.08;1.70;;;;;;;4.17;42.05;101678.94;1628329;87;21639;-51
2021/12/21 10:12:00;;;;;;;1.70;1.60;;;;;;;4.18;41.72;101672.08;1622894;87;21168;-51
2021/12/21 10:14:26;;;;;;;1.87;1.52;;;;;;;4.20;42.29;101673.86;1633151;88;21118;-51
2021/12/21 10:17:06;;;;;;;3.55;2.33;;;;;;;4.21;41.26;101675.58;1627560;87;21204;-52
2021/12/21 10:19:32;;;;;;;2.37;1.90;;;;;;;4.23;42.05;101676.47;1622657;87;21048;-51
2021/12/21 10:22:11;;;;;;;2.70;1.80;;;;;;;4.30;41.85;101673.19;1648205;85;21177;-51
2021/12/21 10:24:49;;;;;;;3.22;2.25;;;;;;;4.39;41.21;101675.06;1611085;87;21032;-52
2021/12/21 10:27:18;;;;;;;1.98;1.60;;;;;;;4.43;41.38;101674.27;1611030;87;21084;-53
2021/12/21 10:29:52;;;;;;;1.27;1.17;;;;;;;4.47;41.06;101683.80;1577055;89;21074;-51
2021/12/21 10:32:25;;;;;;;2.37;1.85;;;;;;;4.50;40.96;101695.02;1536555;92;21103;-51
2021/12/21 10:34:56;;;;;;;3.15;1.67;;;;;;;4.54;40.27;101686.49;1478730;96;21118;-51
2021/12/21 10:37:27;;;;;;;3.25;1.92;;;;;;;4.56;39.84;101686.09;1480672;96;21057;-51
2021/12/21 10:40:23;;;;;;;;;;;;;;;4.56;40.03;101686.52;1473449;96;21191;-51
2021/12/21 10:43:02;;;;;;;2.37;1.70;;;;;;;4.54;40.19;101701.08;1523203;91;20154;-51
2021/12/21 10:45:38;;;;;;;1.77;1.50;;;;;;;4.59;39.76;101688.75;1472455;94;21117;-51
2021/12/21 10:48:08;;;;;;;4.00;1.82;;;;;;;4.63;39.71;101691.82;1483179;95;21633;-51
2021/12/21 10:50:36;;;;;;;3.12;2.10;;;;;;;4.58;39.68;101693.44;1463812;97;21217;-51
2021/12/21 10:53:03;;;;;;;2.62;1.55;;;;;;;4.52;40.01;101693.33;1454381;97;21096;-53
2021/12/21 10:55:36;;;;;;;2.92;1.62;;;;;;;4.47;39.98;101688.50;1457957;97;21197;-52
2021/12/21 10:58:13;;;;;;;2.95;1.95;;;;;;;4.52;39.94;101693.33;1460707;97;21748;-51
2021/12/21 11:00:52;;;;;;;4.15;1.67;;;;;;;4.55;40.05;101689.53;1377591;102;21179;-51
2021/12/21 11:03:32;;;;;;;1.70;1.47;;;;;;;4.54;40.22;101700.67;1366548;103;21142;-52
2021/12/21 11:06:16;;;;;;;2.33;1.60;;;;;;;4.59;39.79;101690.03;1343696;105;21217;-51
2021/12/21 11:08:48;;;;;;;1.70;1.40;;;;;;;4.74;39.58;101699.73;1344296;105;21175;-52
2021/12/21 11:11:42;;;;;;;2.35;1.45;;;;;;;4.84;39.50;101702.91;1317842;106;21191;-51
2021/12/21 11:14:10;;;;;;;1.77;1.47;;;;;;;4.87;38.92;101705.11;1338599;104;21150;-51
2021/12/21 11:16:46;;;;;;;2.33;1.70;;;;;;;4.92;38.30;101699.59;1336807;106;21149;-52
2021/12/21 11:19:16;;;;;;;2.52;1.30;;;;;;;4.98;37.74;101717.31;1331370;106;21586;-50
2021/12/21 11:21:45;;;;;;;2.52;1.67;;;;;;;4.99;37.98;101704.42;1319265;104;21100;-51
2021/12/21 11:24:14;;;;;;;3.02;1.60;;;;;;;4.96;37.70;101722.45;1379132;104;21171;-51
2021/12/21 11:26:42;;;;;;;5.03;2.47;;;;;;;4.87;38.47;101711.97;1357515;104;22390;-50
2021/12/21 11:29:13;;;;;;;4.83;2.42;;;;;;;4.81;38.72;101717.91;1350004;104;21138;-50
2021/12/21 11:31:42;;;;;;;2.58;2.15;;;;;;;4.79;38.20;101716.14;1397646;98;21597;-51
2021/12/21 11:34:17;;;;;;;3.12;1.70;;;;;;;4.73;38.80;101719.48;1461931;97;21082;-50
2021/12/21 11:39:32;;;;;;;3.47;1.67;;;;;;;4.65;39.35;101719.78;1500772;93;21100;-50
2021/12/21 11:42:02;;;;;;;1.90;1.70;;;;;;;4.58;38.92;101729.52;1498456;93;21153;-50
2021/12/21 11:44:46;;;;;;;2.30;1.70;;;;;;;4.56;38.96;101728.63;1503072;94;21656;-51
2021/12/21 11:47:15;;;;;;;4.20;1.95;;;;;;;4.62;38.41;101717.13;1441142;98;21122;-52
2021/12/21 11:49:47;;;;;;;2.80;1.40;;;;;;;4.64;37.77;101730.91;1449269;96;21165;-50
2021/12/21 11:52:16;;;;;;;;;;;;;;;4.67;38.34;101741.71;1439651;97;21146;-50
2021/12/21 11:54:58;;;;;;;1.67;1.30;;;;;;;4.68;38.49;101733.12;1444223;98;20135;-50
2021/12/21 11:57:49;;;;;;;2.10;1.45;;;;;;;4.74;39.44;101731.97;1409017;99;21198;-50
2021/12/21 12:00:23;;;;;;;3.90;3.05;;;;;;;4.75;43.33;101741.01;1449071;97;21145;-50
2021/12/21 12:02:52;;;;;;;3.50;2.70;;;;;;;4.66;44.81;101749.86;1456401;96;21663;-51
2021/12/21 12:05:26;;;;;;;3.50;2.75;;;;;;;4.48;45.17;101751.23;1436144;98;21082;-50
2021/12/21 12:08:07;;;;;;;2.33;1.90;;;;;;;4.40;45.30;101751.51;1470986;96;21088;-50
2021/12/21 12:10:37;;;;;;;3.40;2.42;;;;;;;4.34;44.97;101750.98;1478082;95;21158;-51
2021/12/21 12:13:18;;;;;;;1.77;1.15;;;;;;;4.25;45.16;101752.08;1480848;95;21452;-52
2021/12/21 12:15:54;;;;;;;1.72;1.62;;;;;;;4.13;44.80;101756.98;1488327;95;21158;-50
2021/12/21 12:18:35;;;;;;;2.90;1.70;;;;;;;4.10;44.33;101762.94;1492224;95;21158;-51
2021/12/21 12:21:20;;;;;;;;;;;;;;;4.01;44.54;101776.06;1433007;98;21203;-50
2021/12/21 12:23:54;;;;;;;1.45;1.00;;;;;;;3.91;44.91;101776.30;1428192;100;20166;-51
2021/12/21 12:26:28;;;;;;;5.15;1.45;;;;;;;3.81;44.43;101769.63;1396974;100;21191;-50
2021/12/21 12:28:59;;;;;;;2.42;1.60;;;;;;;3.77;44.29;101764.80;1399335;100;21145;-50
2021/12/21 12:31:33;;;;;;;1.65;1.30;;;;;;;3.75;43.14;101772.06;1394697;102;21161;-50
2021/12/21 12:34:01;;;;;;;2.58;1.70;;;;;;;3.72;42.27;101769.00;1364829;104;21603;-50
2021/12/21 12:36:50;;;;;;;1.30;1.20;;;;;;;3.69;42.01;101772.78;1384775;102;22482;-53
2021/12/21 12:39:27;;;;;;;2.72;1.40;;;;;;;3.69;41.46;101773.22;1392451;101;21185;-50
2021/12/21 12:41:53;;;;;;;1.62;1.20;;;;;;;3.70;41.11;101773.25;1375568;102;21268;-51
2021/12/21 12:44:23;;;;;;;1.60;1.30;;;;;;;3.78;40.69;101777.27;1379683;102;21169;-50
2021/12/21 12:46:56;;;;;;;2.95;1.70;;;;;;;3.87;41.10;101777.47;1399346;101;21184;-50
2021/12/21 12:49:25;;;;;;;2.30;1.62;;;;;;;3.93;41.74;101787.91;1362483;103;21136;-53
2021/12/21 12:51:55;;;;;;;2.30;2.10;;;;;;;3.94;41.94;101790.91;1366426;103;21306;-50
2021/12/21 12:54:23;;;;;;;2.35;1.82;;;;;;;3.91;42.00;101788.29;1355785;104;21154;-50